createdAt,value
2023-02-27T00:02:17.811Z,5.90
2023-02-27T00:04:58.087Z,5.60
2023-02-27T00:08:06.471Z,5.40
2023-02-27T00:11:12.973Z,4.40
2023-02-27T00:14:32.607Z,5.00
2023-02-27T00:17:39.123Z,5.30
2023-02-27T00:20:15.894Z,4.30
2023-02-27T00:22:57.224Z,5.90
2023-02-27T00:25:33.646Z,4.80
2023-02-27T00:28:35.332Z,5.40
2023-02-27T00:31:20.358Z,4.90
2023-02-27T00:34:07.510Z,4.30
2023-02-27T00:36:57.089Z,4.20
2023-02-27T00:40:05.318Z,4.00
2023-02-27T00:42:40.470Z,3.70
2023-02-27T00:45:20.807Z,4.00
2023-02-27T00:47:48.615Z,3.20
2023-02-27T00:50:17.904Z,3.60
2023-02-27T00:52:48.378Z,3.70
2023-02-27T00:55:16.742Z,3.20
2023-02-27T00:57:43.542Z,2.90
2023-02-27T01:00:14.846Z,2.10
2023-02-27T01:02:41.737Z,2.70
2023-02-27T01:05:09.615Z,3.00
2023-02-27T01:07:41.635Z,2.80
2023-02-27T01:10:28.129Z,2.40
2023-02-27T01:13:10.349Z,2.50
2023-02-27T01:15:39.317Z,2.20
2023-02-27T01:18:05.884Z,2.40
2023-02-27T01:20:53.562Z,2.00
2023-02-27T01:23:21.632Z,2.20
2023-02-27T01:25:51.250Z,3.30
2023-02-27T01:28:17.837Z,3.50
2023-02-27T01:30:44.794Z,4.00
2023-02-27T01:33:14.601Z,4.30
2023-02-27T01:35:41.737Z,4.00
2023-02-27T01:38:34.800Z,5.40
2023-02-27T01:42:13.892Z,5.10
2023-02-27T01:45:59.931Z,4.00
2023-02-27T01:49:21.825Z,3.60
2023-02-27T01:52:49.886Z,5.30
2023-02-27T01:56:11.758Z,3.40
2023-02-27T01:59:11.577Z,5.10
2023-02-27T02:01:39.129Z,5.30
2023-02-27T02:04:18.028Z,3.10
2023-02-27T02:06:50.184Z,3.10
2023-02-27T02:09:21.183Z,3.20
2023-02-27T02:11:48.379Z,3.70
2023-02-27T02:14:17.526Z,3.40
2023-02-27T02:17:05.341Z,3.10
2023-02-27T02:19:53.976Z,2.40
2023-02-27T02:22:48.690Z,2.40
2023-02-27T02:25:43.017Z,2.50
2023-02-27T02:28:35.852Z,2.40
2023-02-27T02:31:22.795Z,2.30
2023-02-27T02:34:16.130Z,2.40
2023-02-27T02:37:10.390Z,2.10
2023-02-27T02:39:59.176Z,2.10
2023-02-27T02:42:34.023Z,1.70
2023-02-27T02:45:13.829Z,1.70
2023-02-27T02:48:03.966Z,1.80
2023-02-27T02:50:41.092Z,1.10
2023-02-27T02:53:17.521Z,1.50
2023-02-27T02:55:50.388Z,1.50
2023-02-27T02:58:32.143Z,1.90
2023-02-27T03:01:09.443Z,1.50
2023-02-27T03:03:47.018Z,1.60
2023-02-27T03:06:31.917Z,1.30
2023-02-27T03:09:05.301Z,1.00
2023-02-27T03:11:36.697Z,1.00
2023-02-27T03:14:14.214Z,1.00
2023-02-27T03:16:45.462Z,1.00
2023-02-27T03:19:42.826Z,0.90
2023-02-27T03:23:13.858Z,0.90
2023-02-27T03:26:40.747Z,0.90
2023-02-27T03:30:33.899Z,0.90
2023-02-27T03:37:40.844Z,1.10
2023-02-27T03:41:05.895Z,0.60
2023-02-27T03:44:30.793Z,0.80
2023-02-27T03:47:55.856Z,0.80
2023-02-27T03:54:26.988Z,1.50
2023-02-27T03:57:58.826Z,1.00
2023-02-27T04:01:40.374Z,1.30
2023-02-27T04:05:14.817Z,1.10
2023-02-27T04:08:44.866Z,0.90
2023-02-27T04:12:15.766Z,0.80
2023-02-27T04:15:54.161Z,1.10
2023-02-27T04:19:55.244Z,0.70
2023-02-27T04:23:42.159Z,0.80
2023-02-27T04:27:36.799Z,0.60
2023-02-27T04:31:45.078Z,0.80
2023-02-27T04:35:19.149Z,0.90
2023-02-27T04:53:22.960Z,1.00
2023-02-27T05:11:17.829Z,1.50
2023-02-27T05:22:16.716Z,0.60
2023-02-27T05:29:41.840Z,0.80
2023-02-27T05:33:22.813Z,0.80
2023-02-27T05:48:48.974Z,1.80
2023-02-27T05:56:02.168Z,0.80
2023-02-27T06:00:07.107Z,1.10
2023-02-27T06:03:16.965Z,1.20
2023-02-27T06:05:46.900Z,1.20
2023-02-27T06:08:13.563Z,1.30
2023-02-27T06:10:40.213Z,4.20
2023-02-27T06:13:06.745Z,3.80
2023-02-27T06:15:33.316Z,2.00
2023-02-27T06:17:59.889Z,1.60
2023-02-27T06:20:26.575Z,2.30
2023-02-27T06:22:53.641Z,1.60
2023-02-27T06:25:21.407Z,1.70
2023-02-27T06:27:48.979Z,1.80
2023-02-27T06:30:15.881Z,1.00
2023-02-27T06:32:42.390Z,1.80
2023-02-27T06:35:09.827Z,2.50
2023-02-27T06:37:36.445Z,2.40
2023-02-27T06:40:05.235Z,2.00
2023-02-27T06:42:33.643Z,2.60
2023-02-27T06:45:00.184Z,2.90
2023-02-27T06:47:26.812Z,2.10
2023-02-27T06:49:53.349Z,2.20
2023-02-27T06:52:19.876Z,1.90
2023-02-27T06:54:47.087Z,2.50
2023-02-27T06:57:13.811Z,1.60
2023-02-27T06:59:41.204Z,1.40
2023-02-27T07:02:11.989Z,1.60
2023-02-27T07:04:38.883Z,1.90
2023-02-27T07:07:32.416Z,1.60
2023-02-27T07:09:52.449Z,2.20
2023-02-27T07:19:16.870Z,4.60
2023-02-27T07:25:46.849Z,2.10
2023-02-27T07:39:17.884Z,1.20
2023-02-27T07:42:40.896Z,1.40
2023-02-27T07:56:26.031Z,1.00
2023-02-27T08:16:26.521Z,1.10
2023-02-27T08:45:02.916Z,2.10
2023-02-27T08:56:05.489Z,1.90
2023-02-27T08:59:41.984Z,1.80
2023-02-27T09:37:27.982Z,1.50
2023-02-27T09:41:15.890Z,1.30
2023-02-27T09:58:57.401Z,2.00
2023-02-27T10:14:15.356Z,3.00
2023-02-27T10:17:38.350Z,3.10
2023-02-27T10:20:54.048Z,2.90
2023-02-27T10:23:40.602Z,1.60
2023-02-27T10:26:17.299Z,2.00
2023-02-27T10:50:21.796Z,4.70
2023-02-27T10:53:53.828Z,3.90
2023-02-27T11:03:56.992Z,4.80
2023-02-27T11:06:25.905Z,4.40
2023-02-27T11:09:21.569Z,4.50
2023-02-27T11:11:52.284Z,8.20
2023-02-27T11:14:27.540Z,3.40
2023-02-27T11:16:58.212Z,4.00
2023-02-27T11:19:32.622Z,3.00
2023-02-27T11:22:03.619Z,3.30
2023-02-27T11:24:30.977Z,2.20
2023-02-27T11:27:04.415Z,3.20
2023-02-27T11:29:33.597Z,2.90
2023-02-27T11:32:11.527Z,3.40
2023-02-27T11:34:47.345Z,3.00
2023-02-27T11:37:28.551Z,2.60
2023-02-27T11:40:15.996Z,3.20
2023-02-27T11:42:49.061Z,4.70
2023-02-27T11:46:05.177Z,2.50
2023-02-27T11:48:31.827Z,2.00
2023-02-27T11:51:14.525Z,3.00
2023-02-27T11:54:10.873Z,2.80
2023-02-27T11:56:47.020Z,3.20
2023-02-27T11:59:29.658Z,2.90
2023-02-27T12:02:25.158Z,2.30
2023-02-27T12:05:10.583Z,3.20
2023-02-27T12:07:56.023Z,3.70
2023-02-27T12:10:30.464Z,3.70
2023-02-27T12:13:58.018Z,3.00
2023-02-27T12:16:37.074Z,4.10
2023-02-27T12:19:20.872Z,3.80
2023-02-27T12:22:01.466Z,4.20
2023-02-27T12:24:38.724Z,4.40
2023-02-27T12:27:30.233Z,3.80
2023-02-27T12:30:07.075Z,2.80
2023-02-27T12:32:42.485Z,3.40
2023-02-27T12:35:30.082Z,3.70
2023-02-27T12:37:57.736Z,3.30
2023-02-27T12:40:31.227Z,3.10
2023-02-27T12:43:18.888Z,3.80
2023-02-27T12:45:58.643Z,3.10
2023-02-27T12:48:53.717Z,3.50
2023-02-27T12:51:38.714Z,3.60
2023-02-27T12:54:26.135Z,4.10
2023-02-27T12:57:09.138Z,3.00
2023-02-27T13:00:02.042Z,3.00
2023-02-27T13:03:00.256Z,2.60
2023-02-27T13:05:39.884Z,3.30
2023-02-27T13:08:31.881Z,3.60
2023-02-27T13:11:08.179Z,2.90
2023-02-27T13:13:47.660Z,3.30
2023-02-27T13:16:25.434Z,3.50
2023-02-27T13:18:56.428Z,4.90
2023-02-27T13:21:33.134Z,4.10
2023-02-27T13:26:38.832Z,4.20
2023-02-27T13:29:12.357Z,4.10
2023-02-27T13:31:55.093Z,6.10
2023-02-27T13:34:32.690Z,6.30
2023-02-27T13:37:05.426Z,5.40
2023-02-27T13:39:52.102Z,6.20
2023-02-27T13:42:58.596Z,5.00
2023-02-27T13:45:52.666Z,6.60
2023-02-27T13:48:36.281Z,7.50
2023-02-27T13:51:03.898Z,4.20
2023-02-27T13:53:30.658Z,5.20
2023-02-27T13:56:21.900Z,5.20
2023-02-27T13:58:49.990Z,6.40
2023-02-27T14:01:26.949Z,3.90
2023-02-27T14:04:05.656Z,6.70
2023-02-27T14:06:32.740Z,7.00
2023-02-27T14:09:12.864Z,5.10
2023-02-27T14:11:53.406Z,7.10
2023-02-27T14:14:40.993Z,7.70
2023-02-27T14:17:10.986Z,4.70
2023-02-27T14:19:48.304Z,4.30
2023-02-27T14:22:31.387Z,3.80
2023-02-27T14:25:05.839Z,4.10
2023-02-27T14:27:47.530Z,5.10
2023-02-27T14:30:29.325Z,3.90
2023-02-27T14:33:02.125Z,4.90
2023-02-27T14:35:29.845Z,4.20
2023-02-27T14:38:10.196Z,4.60
2023-02-27T14:40:46.452Z,4.80
2023-02-27T14:43:26.971Z,4.80
2023-02-27T14:45:54.646Z,5.00
2023-02-27T14:48:27.212Z,4.80
2023-02-27T14:50:57.102Z,4.20
2023-02-27T14:53:26.571Z,6.60
2023-02-27T14:55:57.924Z,6.70
2023-02-27T14:58:25.178Z,5.20
2023-02-27T15:01:09.172Z,5.00
2023-02-27T15:03:51.172Z,5.20
2023-02-27T15:06:22.919Z,4.80
2023-02-27T15:08:52.718Z,4.80
2023-02-27T15:11:21.999Z,4.60
2023-02-27T15:13:57.579Z,4.90
2023-02-27T15:16:31.477Z,4.90
2023-02-27T15:19:03.520Z,4.70
2023-02-27T15:21:33.285Z,5.00
2023-02-27T15:24:03.162Z,5.80
2023-02-27T15:26:36.503Z,5.10
2023-02-27T15:29:04.878Z,5.70
2023-02-27T15:31:32.140Z,4.90
2023-02-27T15:34:04.002Z,6.10
2023-02-27T15:36:33.812Z,5.50
2023-02-27T15:39:16.120Z,5.00
2023-02-27T15:41:47.876Z,5.20
2023-02-27T15:44:17.522Z,5.70
2023-02-27T15:46:45.398Z,5.90
2023-02-27T15:49:17.657Z,5.60
2023-02-27T15:51:49.754Z,5.80
2023-02-27T15:54:21.857Z,6.00
2023-02-27T15:56:48.523Z,7.20
2023-02-27T15:59:19.026Z,5.80
2023-02-27T16:01:47.531Z,7.20
2023-02-27T16:04:30.619Z,7.90
2023-02-27T16:07:02.718Z,6.80
2023-02-27T16:09:34.748Z,5.10
2023-02-27T16:12:29.861Z,4.80
2023-02-27T16:15:19.260Z,4.80
2023-02-27T16:17:58.682Z,5.20
2023-02-27T16:20:38.480Z,4.50
2023-02-27T16:23:15.160Z,5.10
2023-02-27T16:25:58.650Z,4.80
2023-02-27T16:28:29.854Z,6.70
2023-02-27T16:30:56.365Z,5.30
2023-02-27T16:33:23.986Z,6.50
2023-02-27T16:36:15.037Z,5.70
2023-02-27T16:38:41.642Z,5.10
2023-02-27T16:41:11.359Z,5.80
2023-02-27T16:43:37.953Z,6.00
2023-02-27T16:46:04.541Z,6.80
2023-02-27T16:48:34.345Z,6.70
2023-02-27T16:51:00.904Z,9.20
2023-02-27T16:53:27.379Z,10.20
2023-02-27T16:55:54.422Z,8.60
2023-02-27T16:58:21.047Z,12.30
2023-02-27T17:00:48.447Z,11.00
2023-02-27T17:03:15.188Z,10.40
2023-02-27T17:05:41.751Z,10.40
2023-02-27T17:08:10.379Z,9.00
2023-02-27T17:10:37.100Z,7.30
2023-02-27T17:13:03.639Z,6.90
2023-02-27T17:15:30.072Z,7.20
2023-02-27T17:17:56.684Z,6.70
2023-02-27T17:20:25.329Z,5.90
2023-02-27T17:22:51.724Z,6.20
2023-02-27T17:25:18.253Z,5.50
2023-02-27T17:28:16.103Z,5.30
2023-02-27T17:31:55.786Z,5.30
2023-02-27T17:35:34.253Z,10.40
2023-02-27T17:39:09.751Z,9.70
2023-02-27T17:43:16.939Z,6.90
2023-02-27T17:46:55.794Z,6.40
2023-02-27T17:50:30.803Z,6.70
2023-02-27T17:54:16.064Z,6.50
2023-02-27T17:57:53.278Z,7.10
2023-02-27T18:01:35.845Z,7.40
2023-02-27T18:05:20.789Z,8.50
2023-02-27T18:09:19.296Z,8.00
2023-02-27T18:20:52.727Z,7.50
2023-02-27T18:23:54.197Z,7.80
2023-02-27T18:43:41.766Z,8.60
2023-02-27T18:46:58.816Z,7.70
2023-02-27T18:50:16.764Z,7.30
2023-02-27T18:53:59.794Z,7.60
2023-02-27T18:57:11.790Z,7.70
2023-02-27T19:00:24.838Z,7.80
2023-02-27T19:03:53.758Z,6.70
2023-02-27T19:07:27.832Z,7.00
2023-02-27T19:11:28.182Z,7.10
2023-02-27T19:15:02.741Z,5.90
2023-02-27T19:17:56.905Z,7.60
2023-02-27T19:21:21.908Z,7.60
2023-02-27T19:28:02.867Z,8.00
2023-02-27T19:31:33.851Z,8.10
2023-02-27T19:34:45.728Z,8.20
2023-02-27T19:41:14.799Z,8.40
2023-02-27T19:44:36.582Z,8.70
2023-02-27T19:47:03.196Z,8.60
2023-02-27T19:49:30.813Z,8.20
2023-02-27T19:51:57.514Z,9.10
2023-02-27T19:54:24.057Z,9.40
2023-02-27T19:56:52.066Z,9.10
2023-02-27T19:59:21.287Z,8.90
2023-02-27T20:01:47.918Z,9.00
2023-02-27T20:04:17.106Z,9.30
2023-02-27T20:06:45.804Z,8.70
2023-02-27T20:09:16.492Z,8.70
2023-02-27T20:11:44.656Z,8.80
2023-02-27T20:14:13.251Z,9.00
2023-02-27T20:16:40.368Z,8.70
2023-02-27T20:19:09.666Z,7.80
2023-02-27T20:21:37.065Z,8.30
2023-02-27T20:24:04.487Z,8.30
2023-02-27T20:26:33.828Z,8.00
2023-02-27T20:29:04.389Z,7.10
2023-02-27T20:31:33.328Z,7.40
2023-02-27T20:34:00.976Z,7.00
2023-02-27T20:36:27.724Z,6.20
2023-02-27T20:38:54.737Z,6.60
2023-02-27T20:41:22.788Z,6.50
2023-02-27T20:43:49.568Z,6.70
2023-02-27T20:46:19.166Z,6.60
2023-02-27T20:48:46.045Z,6.60
2023-02-27T20:51:16.609Z,6.40
2023-02-27T20:53:46.185Z,6.50
2023-02-27T20:56:13.477Z,7.00
2023-02-27T20:58:40.398Z,7.00
2023-02-27T21:01:09.678Z,6.70
2023-02-27T21:03:39.329Z,6.90
2023-02-27T21:06:08.199Z,7.60
2023-02-27T21:08:36.723Z,8.90
2023-02-27T21:11:10.979Z,7.00
2023-02-27T21:13:38.028Z,6.70
2023-02-27T21:16:09.230Z,7.70
2023-02-27T21:18:37.677Z,9.80
2023-02-27T21:21:06.647Z,8.40
2023-02-27T21:23:40.485Z,8.60
2023-02-27T21:26:17.104Z,8.30
2023-02-27T21:31:15.477Z,7.40
2023-02-27T21:33:42.792Z,7.70
2023-02-27T21:36:10.817Z,8.10
2023-02-27T21:38:38.275Z,8.20
2023-02-27T21:41:08.230Z,8.70
2023-02-27T21:43:35.870Z,8.60
2023-02-27T21:46:11.703Z,9.30
2023-02-27T21:48:38.880Z,8.50
2023-02-27T21:51:06.554Z,7.90
2023-02-27T21:53:33.341Z,8.70
2023-02-27T21:56:09.742Z,8.00
2023-02-27T22:01:15.559Z,9.10
2023-02-27T22:03:43.799Z,7.30
2023-02-27T22:06:10.749Z,7.60
2023-02-27T22:08:38.028Z,7.20
2023-02-27T22:11:04.975Z,7.10
2023-02-27T22:13:33.394Z,7.10
2023-02-27T22:16:06.155Z,6.60
2023-02-27T22:18:33.335Z,7.30
2023-02-27T22:21:00.794Z,7.30
2023-02-27T22:23:28.374Z,7.20
2023-02-27T22:26:10.282Z,7.50
2023-02-27T22:29:43.090Z,7.60
2023-02-27T22:33:30.721Z,7.20
2023-02-27T22:38:01.559Z,7.50
2023-02-27T22:41:48.792Z,8.20
2023-02-27T22:45:27.740Z,8.60
2023-02-27T22:49:31.857Z,8.10
2023-02-27T22:53:22.783Z,9.20
2023-02-27T22:57:13.884Z,8.80
2023-02-27T23:01:03.760Z,10.20
2023-02-27T23:04:55.817Z,9.10
2023-02-27T23:08:51.779Z,9.10
2023-02-27T23:12:34.758Z,9.50
2023-02-27T23:16:13.957Z,10.50
2023-02-27T23:19:38.785Z,9.50
2023-02-27T23:26:40.747Z,11.30
2023-02-27T23:30:11.096Z,11.90
2023-02-27T23:34:09.755Z,11.40
2023-02-27T23:38:05.697Z,11.90
2023-02-27T23:41:46.063Z,12.20
2023-02-27T23:46:13.452Z,12.10
2023-02-27T23:50:13.053Z,11.80
2023-02-27T23:54:02.770Z,10.60
2023-02-27T23:57:44.696Z,11.30
